sensor_id;sensor_type;location;lat;lon;timestamp;pressure;altitude;pressure_sealevel;temperature;humidity
16580;BME280;8402;51.466;6.806;2022-09-20T00:02:05;101892.78;;;13.12;84.92
16580;BME280;8402;51.466;6.806;2022-09-20T00:04:32;101896.22;;;13.18;84.66
16580;BME280;8402;51.466;6.806;2022-09-20T00:07:00;101897.81;;;13.19;84.76
16580;BME280;8402;51.466;6.806;2022-09-20T00:09:28;101895.63;;;13.21;85.06
16580;BME280;8402;51.466;6.806;2022-09-20T00:11:56;101897.44;;;13.26;84.95
16580;BME280;8402;51.466;6.806;2022-09-20T00:14:25;101897.13;;;13.27;84.78
16580;BME280;8402;51.466;6.806;2022-09-20T00:16:53;101903.13;;;13.29;84.87
16580;BME280;8402;51.466;6.806;2022-09-20T00:19:21;101899.88;;;13.27;84.49
16580;BME280;8402;51.466;6.806;2022-09-20T00:21:48;101902.91;;;13.26;84.80
16580;BME280;8402;51.466;6.806;2022-09-20T00:24:16;101896.34;;;13.27;84.31
16580;BME280;8402;51.466;6.806;2022-09-20T00:26:44;101900.50;;;13.24;84.44
16580;BME280;8402;51.466;6.806;2022-09-20T00:29:12;101905.72;;;13.20;84.40
16580;BME280;8402;51.466;6.806;2022-09-20T00:31:41;101905.50;;;13.17;84.76
16580;BME280;8402;51.466;6.806;2022-09-20T00:34:10;101905.00;;;13.15;84.59
16580;BME280;8402;51.466;6.806;2022-09-20T00:36:55;101912.97;;;13.11;84.68
16580;BME280;8402;51.466;6.806;2022-09-20T00:39:23;101907.31;;;13.08;85.39
16580;BME280;8402;51.466;6.806;2022-09-20T00:41:51;101900.25;;;13.07;85.03
16580;BME280;8402;51.466;6.806;2022-09-20T00:44:42;101904.69;;;13.03;85.12
16580;BME280;8402;51.466;6.806;2022-09-20T00:47:18;101909.03;;;13.04;84.90
16580;BME280;8402;51.466;6.806;2022-09-20T00:49:49;101900.84;;;13.04;84.84
16580;BME280;8402;51.466;6.806;2022-09-20T00:52:18;101904.88;;;13.06;85.14
16580;BME280;8402;51.466;6.806;2022-09-20T00:54:47;101905.69;;;13.07;84.98
16580;BME280;8402;51.466;6.806;2022-09-20T00:57:15;101908.72;;;13.05;84.79
16580;BME280;8402;51.466;6.806;2022-09-20T00:59:45;101903.88;;;13.02;85.03
16580;BME280;8402;51.466;6.806;2022-09-20T01:02:18;101905.28;;;13.00;84.67
16580;BME280;8402;51.466;6.806;2022-09-20T01:04:47;101907.50;;;12.98;84.73
16580;BME280;8402;51.466;6.806;2022-09-20T01:07:17;101903.16;;;12.97;84.81
16580;BME280;8402;51.466;6.806;2022-09-20T01:09:48;101905.91;;;12.97;84.67
16580;BME280;8402;51.466;6.806;2022-09-20T01:12:18;101908.31;;;12.98;84.98
16580;BME280;8402;51.466;6.806;2022-09-20T01:14:49;101902.66;;;12.94;84.99
16580;BME280;8402;51.466;6.806;2022-09-20T01:17:21;101901.66;;;12.90;84.89
16580;BME280;8402;51.466;6.806;2022-09-20T01:19:59;101897.41;;;12.84;85.10
16580;BME280;8402;51.466;6.806;2022-09-20T01:22:40;101912.63;;;12.85;85.14
16580;BME280;8402;51.466;6.806;2022-09-20T01:25:14;101904.47;;;12.85;84.91
16580;BME280;8402;51.466;6.806;2022-09-20T01:27:44;101906.09;;;12.86;85.09
16580;BME280;8402;51.466;6.806;2022-09-20T01:30:15;101903.66;;;12.85;85.02
16580;BME280;8402;51.466;6.806;2022-09-20T01:32:55;101912.13;;;12.83;84.66
16580;BME280;8402;51.466;6.806;2022-09-20T01:35:26;101905.06;;;12.82;84.88
16580;BME280;8402;51.466;6.806;2022-09-20T01:38:09;101913.84;;;12.79;84.74
16580;BME280;8402;51.466;6.806;2022-09-20T01:40:48;101915.56;;;12.75;84.26
16580;BME280;8402;51.466;6.806;2022-09-20T01:43:26;101905.28;;;12.72;84.88
16580;BME280;8402;51.466;6.806;2022-09-20T01:45:57;101914.53;;;12.71;84.82
16580;BME280;8402;51.466;6.806;2022-09-20T01:48:33;101915.13;;;12.68;84.99
16580;BME280;8402;51.466;6.806;2022-09-20T01:51:30;101922.56;;;12.62;84.85
16580;BME280;8402;51.466;6.806;2022-09-20T01:54:22;101916.81;;;12.64;84.73
16580;BME280;8402;51.466;6.806;2022-09-20T01:57:19;101913.03;;;12.65;84.83
16580;BME280;8402;51.466;6.806;2022-09-20T02:00:05;101911.91;;;12.66;84.72
16580;BME280;8402;51.466;6.806;2022-09-20T02:03:13;101910.88;;;12.62;85.14
16580;BME280;8402;51.466;6.806;2022-09-20T02:06:29;101909.06;;;12.57;85.62
16580;BME280;8402;51.466;6.806;2022-09-20T02:09:29;101908.84;;;12.54;86.00
16580;BME280;8402;51.466;6.806;2022-09-20T02:12:21;101905.63;;;12.52;86.77
16580;BME280;8402;51.466;6.806;2022-09-20T02:15:03;101904.59;;;12.48;87.16
16580;BME280;8402;51.466;6.806;2022-09-20T02:17:47;101913.94;;;12.42;88.28
16580;BME280;8402;51.466;6.806;2022-09-20T02:20:31;101908.22;;;12.43;89.28
16580;BME280;8402;51.466;6.806;2022-09-20T02:23:11;101902.97;;;12.47;89.44
16580;BME280;8402;51.466;6.806;2022-09-20T02:25:56;101900.47;;;12.50;88.71
16580;BME280;8402;51.466;6.806;2022-09-20T02:28:39;101903.63;;;12.57;88.79
16580;BME280;8402;51.466;6.806;2022-09-20T02:31:15;101905.44;;;12.62;88.39
16580;BME280;8402;51.466;6.806;2022-09-20T02:34:14;101897.19;;;12.67;88.09
16580;BME280;8402;51.466;6.806;2022-09-20T02:36:54;101899.81;;;12.72;88.16
16580;BME280;8402;51.466;6.806;2022-09-20T02:39:35;101892.72;;;12.71;88.05
16580;BME280;8402;51.466;6.806;2022-09-20T02:42:10;101889.13;;;12.76;87.87
16580;BME280;8402;51.466;6.806;2022-09-20T02:44:54;101884.97;;;12.78;87.69
16580;BME280;8402;51.466;6.806;2022-09-20T02:47:31;101894.19;;;12.82;87.80
16580;BME280;8402;51.466;6.806;2022-09-20T02:50:12;101894.19;;;12.82;87.37
16580;BME280;8402;51.466;6.806;2022-09-20T02:52:50;101887.63;;;12.83;87.33
16580;BME280;8402;51.466;6.806;2022-09-20T02:55:34;101893.56;;;12.85;87.29
16580;BME280;8402;51.466;6.806;2022-09-20T02:58:20;101899.00;;;12.85;87.02
16580;BME280;8402;51.466;6.806;2022-09-20T03:00:53;101906.91;;;12.87;86.90
16580;BME280;8402;51.466;6.806;2022-09-20T03:03:35;101904.47;;;12.85;86.94
16580;BME280;8402;51.466;6.806;2022-09-20T03:06:12;101899.31;;;12.84;86.84
16580;BME280;8402;51.466;6.806;2022-09-20T03:08:48;101902.03;;;12.84;86.87
16580;BME280;8402;51.466;6.806;2022-09-20T03:11:26;101902.34;;;12.82;86.69
16580;BME280;8402;51.466;6.806;2022-09-20T03:14:06;101908.91;;;12.81;86.80
16580;BME280;8402;51.466;6.806;2022-09-20T03:16:45;101908.91;;;12.81;86.96
16580;BME280;8402;51.466;6.806;2022-09-20T03:19:29;101904.03;;;12.78;86.82
16580;BME280;8402;51.466;6.806;2022-09-20T03:22:11;101903.03;;;12.74;86.84
16580;BME280;8402;51.466;6.806;2022-09-20T03:24:57;101906.28;;;12.76;86.89
16580;BME280;8402;51.466;6.806;2022-09-20T03:27:31;101904.34;;;12.77;87.45
16580;BME280;8402;51.466;6.806;2022-09-20T03:30:16;101905.47;;;12.76;87.02
16580;BME280;8402;51.466;6.806;2022-09-20T03:32:54;101902.44;;;12.77;86.81
16580;BME280;8402;51.466;6.806;2022-09-20T03:35:36;101905.28;;;12.72;86.86
16580;BME280;8402;51.466;6.806;2022-09-20T03:38:21;101905.84;;;12.69;86.92
16580;BME280;8402;51.466;6.806;2022-09-20T03:41:14;101907.28;;;12.66;87.23
16580;BME280;8402;51.466;6.806;2022-09-20T03:44:00;101905.44;;;12.62;87.98
16580;BME280;8402;51.466;6.806;2022-09-20T03:46:41;101895.97;;;12.59;88.32
16580;BME280;8402;51.466;6.806;2022-09-20T03:49:33;101903.81;;;12.61;88.40
16580;BME280;8402;51.466;6.806;2022-09-20T03:52:18;101905.13;;;12.63;88.57
16580;BME280;8402;51.466;6.806;2022-09-20T03:55:18;101902.41;;;12.63;88.73
16580;BME280;8402;51.466;6.806;2022-09-20T03:58:04;101902.13;;;12.65;88.57
16580;BME280;8402;51.466;6.806;2022-09-20T04:00:48;101902.63;;;12.67;89.19
16580;BME280;8402;51.466;6.806;2022-09-20T04:03:27;101908.06;;;12.67;89.44
16580;BME280;8402;51.466;6.806;2022-09-20T04:06:12;101902.63;;;12.67;89.79
16580;BME280;8402;51.466;6.806;2022-09-20T04:09:07;101906.66;;;12.70;89.56
16580;BME280;8402;51.466;6.806;2022-09-20T04:11:47;101911.31;;;12.69;90.26
16580;BME280;8402;51.466;6.806;2022-09-20T04:14:25;101900.91;;;12.71;90.02
16580;BME280;8402;51.466;6.806;2022-09-20T04:17:00;101906.88;;;12.73;90.21
16580;BME280;8402;51.466;6.806;2022-09-20T04:19:36;101899.22;;;12.75;90.43
16580;BME280;8402;51.466;6.806;2022-09-20T04:22:06;101904.03;;;12.78;90.37
16580;BME280;8402;51.466;6.806;2022-09-20T04:24:39;101894.78;;;12.79;90.42
16580;BME280;8402;51.466;6.806;2022-09-20T04:27:14;101898.00;;;12.81;90.56
16580;BME280;8402;51.466;6.806;2022-09-20T04:29:46;101894.19;;;12.82;90.21
16580;BME280;8402;51.466;6.806;2022-09-20T04:32:18;101900.13;;;12.84;90.14
16580;BME280;8402;51.466;6.806;2022-09-20T04:34:56;101906.38;;;12.85;90.49
16580;BME280;8402;51.466;6.806;2022-09-20T04:37:44;101907.00;;;12.82;90.54
16580;BME280;8402;51.466;6.806;2022-09-20T04:40:19;101908.59;;;12.83;90.84
16580;BME280;8402;51.466;6.806;2022-09-20T04:43:20;101904.03;;;12.78;91.21
16580;BME280;8402;51.466;6.806;2022-09-20T04:52:48;101907.88;;;12.77;91.79
16580;BME280;8402;51.466;6.806;2022-09-20T04:55:48;101907.88;;;12.77;92.24
16580;BME280;8402;51.466;6.806;2022-09-20T05:05:10;101919.50;;;12.83;92.10
16580;BME280;8402;51.466;6.806;2022-09-20T05:11:19;101925.84;;;12.92;92.30
16580;BME280;8402;51.466;6.806;2022-09-20T05:14:08;101925.28;;;12.95;91.66
16580;BME280;8402;51.466;6.806;2022-09-20T05:16:59;101928.72;;;13.01;91.29
16580;BME280;8402;51.466;6.806;2022-09-20T05:19:40;101926.50;;;13.03;91.70
16580;BME280;8402;51.466;6.806;2022-09-20T05:22:42;101936.78;;;13.06;91.43
16580;BME280;8402;51.466;6.806;2022-09-20T05:25:28;101932.66;;;13.08;91.72
16580;BME280;8402;51.466;6.806;2022-09-20T05:28:05;101928.50;;;13.11;91.27
16580;BME280;8402;51.466;6.806;2022-09-20T05:30:40;101933.34;;;13.14;91.25
16580;BME280;8402;51.466;6.806;2022-09-20T05:33:18;101935.97;;;13.19;90.93
16580;BME280;8402;51.466;6.806;2022-09-20T05:35:54;101940.25;;;13.25;90.94
16580;BME280;8402;51.466;6.806;2022-09-20T05:38:33;101937.44;;;13.30;90.93
16580;BME280;8402;51.466;6.806;2022-09-20T05:41:11;101949.34;;;13.34;90.44
16580;BME280;8402;51.466;6.806;2022-09-20T05:43:52;101940.03;;;13.35;90.11
16580;BME280;8402;51.466;6.806;2022-09-20T05:46:33;101941.69;;;13.36;89.83
16580;BME280;8402;51.466;6.806;2022-09-20T05:49:09;101948.75;;;13.37;89.84
16580;BME280;8402;51.466;6.806;2022-09-20T05:51:47;101946.59;;;13.34;90.25
16580;BME280;8402;51.466;6.806;2022-09-20T05:57:33;101943.88;;;13.34;89.99
16580;BME280;8402;51.466;6.806;2022-09-20T06:00:09;101947.13;;;13.36;89.93
16580;BME280;8402;51.466;6.806;2022-09-20T06:02:49;101946.31;;;13.36;90.03
16580;BME280;8402;51.466;6.806;2022-09-20T06:05:28;101947.13;;;13.36;89.76
16580;BME280;8402;51.466;6.806;2022-09-20T06:08:34;101947.72;;;13.33;89.96
16580;BME280;8402;51.466;6.806;2022-09-20T06:11:17;101958.22;;;13.40;90.38
16580;BME280;8402;51.466;6.806;2022-09-20T06:13:59;101957.59;;;13.43;90.41
16580;BME280;8402;51.466;6.806;2022-09-20T06:16:39;101964.38;;;13.45;90.60
16580;BME280;8402;51.466;6.806;2022-09-20T06:19:17;101961.03;;;13.48;90.57
16580;BME280;8402;51.466;6.806;2022-09-20T06:21:50;101964.28;;;13.51;90.52
16580;BME280;8402;51.466;6.806;2022-09-20T06:24:41;101969.53;;;13.47;91.01
16580;BME280;8402;51.466;6.806;2022-09-20T06:27:13;101966.09;;;13.55;90.81
16580;BME280;8402;51.466;6.806;2022-09-20T06:29:48;101974.97;;;13.61;90.71
16580;BME280;8402;51.466;6.806;2022-09-20T06:32:18;101972.16;;;13.66;90.55
16580;BME280;8402;51.466;6.806;2022-09-20T06:34:47;101974.75;;;13.71;90.35
16580;BME280;8402;51.466;6.806;2022-09-20T06:37:31;101970.13;;;13.71;90.99
16580;BME280;8402;51.466;6.806;2022-09-20T06:40:28;101979.41;;;13.84;90.95
16580;BME280;8402;51.466;6.806;2022-09-20T06:43:15;101977.69;;;13.88;90.52
16580;BME280;8402;51.466;6.806;2022-09-20T06:45:44;101979.91;;;13.86;90.17
16580;BME280;8402;51.466;6.806;2022-09-20T06:48:14;101971.50;;;13.96;90.35
16580;BME280;8402;51.466;6.806;2022-09-20T06:50:43;101973.91;;;13.98;90.31
16580;BME280;8402;51.466;6.806;2022-09-20T06:53:15;101976.97;;;13.96;90.02
16580;BME280;8402;51.466;6.806;2022-09-20T06:55:44;101967.66;;;13.97;89.93
16580;BME280;8402;51.466;6.806;2022-09-20T06:58:13;101972.31;;;13.97;89.51
16580;BME280;8402;51.466;6.806;2022-09-20T07:00:41;101980.97;;;13.99;89.74
16580;BME280;8402;51.466;6.806;2022-09-20T07:03:08;101974.13;;;14.01;89.60
16580;BME280;8402;51.466;6.806;2022-09-20T07:05:38;101978.47;;;14.02;89.86
16580;BME280;8402;51.466;6.806;2022-09-20T07:08:07;101984.41;;;14.04;89.51
16580;BME280;8402;51.466;6.806;2022-09-20T07:10:35;101979.97;;;14.09;89.91
16580;BME280;8402;51.466;6.806;2022-09-20T07:13:04;101986.41;;;14.13;89.54
16580;BME280;8402;51.466;6.806;2022-09-20T07:15:33;101987.09;;;14.18;89.73
16580;BME280;8402;51.466;6.806;2022-09-20T07:18:01;101988.94;;;14.23;89.83
16580;BME280;8402;51.466;6.806;2022-09-20T07:20:28;101993.44;;;14.27;89.86
16580;BME280;8402;51.466;6.806;2022-09-20T07:22:56;101998.91;;;14.27;89.34
16580;BME280;8402;51.466;6.806;2022-09-20T07:25:26;102000.81;;;14.27;89.44
16580;BME280;8402;51.466;6.806;2022-09-20T07:27:53;102001.34;;;14.29;89.60
16580;BME280;8402;51.466;6.806;2022-09-20T07:30:22;101995.06;;;14.28;89.16
16580;BME280;8402;51.466;6.806;2022-09-20T07:32:50;101983.53;;;14.31;89.48
16580;BME280;8402;51.466;6.806;2022-09-20T07:35:17;101980.47;;;14.33;88.89
16580;BME280;8402;51.466;6.806;2022-09-20T07:37:46;101973.78;;;14.39;89.05
16580;BME280;8402;51.466;6.806;2022-09-20T07:40:13;101982.88;;;14.48;88.89
16580;BME280;8402;51.466;6.806;2022-09-20T07:42:44;101983.88;;;14.52;88.66
16580;BME280;8402;51.466;6.806;2022-09-20T07:45:11;101976.66;;;14.56;88.63
16580;BME280;8402;51.466;6.806;2022-09-20T07:47:39;101976.75;;;14.65;87.95
16580;BME280;8402;51.466;6.806;2022-09-20T07:50:10;101983.59;;;15.07;88.52
16580;BME280;8402;51.466;6.806;2022-09-20T07:52:38;101982.78;;;15.55;88.85
16580;BME280;8402;51.466;6.806;2022-09-20T07:55:06;101995.00;;;16.06;88.58
16580;BME280;8402;51.466;6.806;2022-09-20T07:57:35;101999.53;;;16.45;86.76
16580;BME280;8402;51.466;6.806;2022-09-20T08:00:07;101999.53;;;16.45;84.74
16580;BME280;8402;51.466;6.806;2022-09-20T08:02:35;102002.59;;;16.27;83.18
16580;BME280;8402;51.466;6.806;2022-09-20T08:05:03;102002.78;;;16.39;83.64
16580;BME280;8402;51.466;6.806;2022-09-20T08:07:31;102005.81;;;16.63;83.26
16580;BME280;8402;51.466;6.806;2022-09-20T08:10:00;102006.13;;;16.88;83.30
16580;BME280;8402;51.466;6.806;2022-09-20T08:12:27;102002.50;;;17.13;82.50
16580;BME280;8402;51.466;6.806;2022-09-20T08:15:17;102010.53;;;17.27;80.29
16580;BME280;8402;51.466;6.806;2022-09-20T08:17:46;102007.28;;;17.33;79.52
16580;BME280;8402;51.466;6.806;2022-09-20T08:20:14;102006.81;;;17.31;79.54
16580;BME280;8402;51.466;6.806;2022-09-20T08:22:44;102015.69;;;17.28;79.98
16580;BME280;8402;51.466;6.806;2022-09-20T08:25:32;102012.47;;;17.26;79.24
16580;BME280;8402;51.466;6.806;2022-09-20T08:28:00;102019.75;;;17.22;80.05
16580;BME280;8402;51.466;6.806;2022-09-20T08:30:29;102018.78;;;17.18;79.25
16580;BME280;8402;51.466;6.806;2022-09-20T08:32:57;102011.22;;;17.15;79.12
16580;BME280;8402;51.466;6.806;2022-09-20T08:35:25;102018.66;;;17.15;78.34
16580;BME280;8402;51.466;6.806;2022-09-20T08:37:55;102020.56;;;17.14;78.76
16580;BME280;8402;51.466;6.806;2022-09-20T08:40:43;102020.44;;;17.11;77.91
16580;BME280;8402;51.466;6.806;2022-09-20T08:43:11;102023.50;;;17.09;78.14
16580;BME280;8402;51.466;6.806;2022-09-20T08:45:40;102022.53;;;17.05;78.59
16580;BME280;8402;51.466;6.806;2022-09-20T08:48:11;102029.66;;;16.97;78.02
16580;BME280;8402;51.466;6.806;2022-09-20T08:50:40;102029.00;;;16.92;77.72
16580;BME280;8402;51.466;6.806;2022-09-20T08:53:11;102029.81;;;16.92;77.74
16580;BME280;8402;51.466;6.806;2022-09-20T08:55:47;102039.66;;;16.85;75.94
16580;BME280;8402;51.466;6.806;2022-09-20T08:58:15;102033.25;;;16.81;77.21
16580;BME280;8402;51.466;6.806;2022-09-20T09:00:46;102031.63;;;16.80;77.56
16580;BME280;8402;51.466;6.806;2022-09-20T09:03:15;102034.19;;;16.85;77.86
16580;BME280;8402;51.466;6.806;2022-09-20T09:05:45;102042.25;;;16.90;76.85
16580;BME280;8402;51.466;6.806;2022-09-20T09:08:16;102043.22;;;16.94;76.49
16580;BME280;8402;51.466;6.806;2022-09-20T09:10:47;102038.97;;;17.05;77.65
16580;BME280;8402;51.466;6.806;2022-09-20T09:13:24;102043.63;;;17.13;76.60
16580;BME280;8402;51.466;6.806;2022-09-20T09:15:57;102036.72;;;17.16;75.83
16580;BME280;8402;51.466;6.806;2022-09-20T09:18:31;102040.91;;;17.13;74.18
16580;BME280;8402;51.466;6.806;2022-09-20T09:21:02;102043.47;;;17.18;75.82
16580;BME280;8402;51.466;6.806;2022-09-20T09:23:38;102044.44;;;17.22;75.58
16580;BME280;8402;51.466;6.806;2022-09-20T09:26:16;102041.38;;;17.24;74.81
16580;BME280;8402;51.466;6.806;2022-09-20T09:28:45;102039.56;;;17.28;75.42
16580;BME280;8402;51.466;6.806;2022-09-20T09:31:23;102039.38;;;17.33;74.63
16580;BME280;8402;51.466;6.806;2022-09-20T09:33:52;102040.50;;;17.41;74.85
16580;BME280;8402;51.466;6.806;2022-09-20T09:36:23;102039.56;;;17.37;72.86
16580;BME280;8402;51.466;6.806;2022-09-20T09:39:13;102040.56;;;17.23;71.41
16580;BME280;8402;51.466;6.806;2022-09-20T09:41:42;102036.00;;;17.27;72.16
16580;BME280;8402;51.466;6.806;2022-09-20T09:44:19;102036.53;;;17.21;69.87
16580;BME280;8402;51.466;6.806;2022-09-20T09:46:50;102032.34;;;17.23;71.54
16580;BME280;8402;51.466;6.806;2022-09-20T09:49:20;102026.66;;;17.28;72.26
16580;BME280;8402;51.466;6.806;2022-09-20T09:52:04;102034.09;;;17.19;69.04
16580;BME280;8402;51.466;6.806;2022-09-20T09:54:35;102033.31;;;17.19;71.45
16580;BME280;8402;51.466;6.806;2022-09-20T09:57:10;102030.91;;;17.17;70.45
16580;BME280;8402;51.466;6.806;2022-09-20T09:59:56;102041.91;;;17.09;68.95
16580;BME280;8402;51.466;6.806;2022-09-20T10:03:04;102038.03;;;17.01;69.76
16580;BME280;8402;51.466;6.806;2022-09-20T10:05:38;102039.78;;;17.05;70.93
16580;BME280;8402;51.466;6.806;2022-09-20T10:08:18;102043.97;;;17.12;70.69
16580;BME280;8402;51.466;6.806;2022-09-20T10:10:58;102038.03;;;17.10;70.15
16580;BME280;8402;51.466;6.806;2022-09-20T10:13:36;102033.81;;;17.12;70.40
16580;BME280;8402;51.466;6.806;2022-09-20T10:16:14;102041.88;;;17.17;70.68
16580;BME280;8402;51.466;6.806;2022-09-20T10:18:53;102040.25;;;17.16;70.36
16580;BME280;8402;51.466;6.806;2022-09-20T10:21:37;102036.22;;;17.14;69.98
16580;BME280;8402;51.466;6.806;2022-09-20T10:24:20;102039.75;;;17.23;70.46
16580;BME280;8402;51.466;6.806;2022-09-20T10:27:07;102032.63;;;17.30;70.71
16580;BME280;8402;51.466;6.806;2022-09-20T10:29:47;102034.38;;;17.35;69.38
16580;BME280;8402;51.466;6.806;2022-09-20T10:32:34;102041.16;;;17.38;68.77
16580;BME280;8402;51.466;6.806;2022-09-20T10:35:21;102032.22;;;17.49;68.24
16580;BME280;8402;51.466;6.806;2022-09-20T10:38:05;102030.56;;;17.57;66.00
16580;BME280;8402;51.466;6.806;2022-09-20T10:40:47;102022.94;;;17.71;67.25
16580;BME280;8402;51.466;6.806;2022-09-20T10:43:47;102031.47;;;17.78;66.70
16580;BME280;8402;51.466;6.806;2022-09-20T10:46:27;102034.03;;;17.83;67.44
16580;BME280;8402;51.466;6.806;2022-09-20T10:49:16;102030.69;;;17.69;65.11
16580;BME280;8402;51.466;6.806;2022-09-20T10:51:56;102031.72;;;17.56;64.28
16580;BME280;8402;51.466;6.806;2022-09-20T10:54:38;102033.97;;;17.54;67.41
16580;BME280;8402;51.466;6.806;2022-09-20T10:57:37;102035.47;;;17.51;66.50
16580;BME280;8402;51.466;6.806;2022-09-20T11:00:18;102031.41;;;17.57;67.54
16580;BME280;8402;51.466;6.806;2022-09-20T11:03:02;102040.63;;;17.53;66.83
16580;BME280;8402;51.466;6.806;2022-09-20T11:05:42;102039.09;;;17.64;66.67
16580;BME280;8402;51.466;6.806;2022-09-20T11:08:18;102037.78;;;17.79;66.91
16580;BME280;8402;51.466;6.806;2022-09-20T11:10:50;102036.13;;;17.86;67.42
16580;BME280;8402;51.466;6.806;2022-09-20T11:13:24;102037.00;;;17.99;67.11
16580;BME280;8402;51.466;6.806;2022-09-20T11:15:57;102039.50;;;18.13;66.29
16580;BME280;8402;51.466;6.806;2022-09-20T11:18:30;102042.50;;;18.20;65.50
16580;BME280;8402;51.466;6.806;2022-09-20T11:21:06;102036.41;;;18.35;65.83
16580;BME280;8402;51.466;6.806;2022-09-20T11:23:43;102043.94;;;18.47;64.28
16580;BME280;8402;51.466;6.806;2022-09-20T11:26:19;102045.69;;;18.52;64.43
16580;BME280;8402;51.466;6.806;2022-09-20T11:28:51;102042.59;;;18.53;64.21
16580;BME280;8402;51.466;6.806;2022-09-20T11:31:24;102043.59;;;18.49;61.41
16580;BME280;8402;51.466;6.806;2022-09-20T11:33:58;102045.00;;;18.55;62.81
16580;BME280;8402;51.466;6.806;2022-09-20T11:36:31;102045.94;;;18.59;63.04
16580;BME280;8402;51.466;6.806;2022-09-20T11:39:11;102050.38;;;18.72;63.50
16580;BME280;8402;51.466;6.806;2022-09-20T11:41:41;102048.81;;;18.83;62.91
16580;BME280;8402;51.466;6.806;2022-09-20T11:44:14;102043.09;;;18.88;62.17
16580;BME280;8402;51.466;6.806;2022-09-20T11:46:47;102047.38;;;18.98;63.36
16580;BME280;8402;51.466;6.806;2022-09-20T11:49:19;102047.81;;;19.00;61.73
16580;BME280;8402;51.466;6.806;2022-09-20T11:52:24;102045.22;;;19.04;60.67
16580;BME280;8402;51.466;6.806;2022-09-20T11:57:59;102053.63;;;19.19;59.95
16580;BME280;8402;51.466;6.806;2022-09-20T12:00:29;102044.59;;;19.31;61.33
16580;BME280;8402;51.466;6.806;2022-09-20T12:02:58;102047.38;;;19.43;61.38
16580;BME280;8402;51.466;6.806;2022-09-20T12:05:29;102045.28;;;19.52;62.06
16580;BME280;8402;51.466;6.806;2022-09-20T12:08:00;102046.38;;;19.60;62.05
16580;BME280;8402;51.466;6.806;2022-09-20T12:10:31;102042.34;;;19.58;61.94
16580;BME280;8402;51.466;6.806;2022-09-20T12:13:02;102041.41;;;19.53;61.07
16580;BME280;8402;51.466;6.806;2022-09-20T12:15:33;102047.69;;;19.54;61.47
16580;BME280;8402;51.466;6.806;2022-09-20T12:21:16;102036.25;;;19.64;60.79
16580;BME280;8402;51.466;6.806;2022-09-20T12:24:00;102036.16;;;19.61;58.08
16580;BME280;8402;51.466;6.806;2022-09-20T12:26:41;102037.72;;;19.49;58.75
16580;BME280;8402;51.466;6.806;2022-09-20T12:32:45;102042.06;;;19.38;57.36
16580;BME280;8402;51.466;6.806;2022-09-20T12:38:54;102036.16;;;19.61;59.18
16580;BME280;8402;51.466;6.806;2022-09-20T12:41:23;102034.06;;;19.70;59.89
16580;BME280;8402;51.466;6.806;2022-09-20T12:44:02;102028.69;;;19.73;58.52
16580;BME280;8402;51.466;6.806;2022-09-20T12:46:34;102032.69;;;19.76;57.54
16580;BME280;8402;51.466;6.806;2022-09-20T12:49:34;102027.66;;;19.66;56.34
16580;BME280;8402;51.466;6.806;2022-09-20T12:52:31;102022.84;;;19.63;55.11
16580;BME280;8402;51.466;6.806;2022-09-20T12:55:48;102031.34;;;19.58;56.57
16580;BME280;8402;51.466;6.806;2022-09-20T12:58:47;102026.63;;;19.58;55.99
16580;BME280;8402;51.466;6.806;2022-09-20T13:01:34;102032.56;;;19.48;54.63
16580;BME280;8402;51.466;6.806;2022-09-20T13:10:33;102024.88;;;19.41;57.07
16580;BME280;8402;51.466;6.806;2022-09-20T13:13:12;102024.69;;;19.59;57.20
16580;BME280;8402;51.466;6.806;2022-09-20T13:15:47;102018.25;;;19.79;57.76
16580;BME280;8402;51.466;6.806;2022-09-20T13:18:17;102020.09;;;19.87;56.58
16580;BME280;8402;51.466;6.806;2022-09-20T13:20:46;102017.66;;;19.98;57.02
16580;BME280;8402;51.466;6.806;2022-09-20T13:23:19;102016.84;;;19.97;55.51
16580;BME280;8402;51.466;6.806;2022-09-20T13:25:49;102016.03;;;19.97;55.19
16580;BME280;8402;51.466;6.806;2022-09-20T13:28:28;102017.66;;;19.98;55.38
16580;BME280;8402;51.466;6.806;2022-09-20T13:31:23;102016.63;;;20.02;52.38
16580;BME280;8402;51.466;6.806;2022-09-20T13:33:53;102011.09;;;20.15;54.12
16580;BME280;8402;51.466;6.806;2022-09-20T13:36:25;102007.31;;;20.35;53.03
16580;BME280;8402;51.466;6.806;2022-09-20T13:38:55;102009.72;;;20.49;53.85
16580;BME280;8402;51.466;6.806;2022-09-20T13:41:27;102005.00;;;20.49;51.98
16580;BME280;8402;51.466;6.806;2022-09-20T13:43:59;102007.09;;;20.40;52.56
16580;BME280;8402;51.466;6.806;2022-09-20T13:46:29;102005.72;;;20.34;53.14
16580;BME280;8402;51.466;6.806;2022-09-20T13:49:12;102020.91;;;20.28;52.85
16580;BME280;8402;51.466;6.806;2022-09-20T13:51:41;102009.22;;;20.19;53.35
16580;BME280;8402;51.466;6.806;2022-09-20T13:54:25;102012.25;;;20.01;51.72
16580;BME280;8402;51.466;6.806;2022-09-20T13:56:55;102016.03;;;20.09;54.12
16580;BME280;8402;51.466;6.806;2022-09-20T13:59:29;102020.75;;;19.96;52.76
16580;BME280;8402;51.466;6.806;2022-09-20T14:01:59;102012.72;;;19.91;54.06
16580;BME280;8402;51.466;6.806;2022-09-20T14:04:30;102015.59;;;19.83;54.77
16580;BME280;8402;51.466;6.806;2022-09-20T14:06:59;102017.56;;;19.82;55.94
16580;BME280;8402;51.466;6.806;2022-09-20T14:09:31;102012.75;;;19.67;56.02
16580;BME280;8402;51.466;6.806;2022-09-20T14:12:02;102022.75;;;19.59;56.03
16580;BME280;8402;51.466;6.806;2022-09-20T14:14:32;102027.97;;;19.52;56.93
16580;BME280;8402;51.466;6.806;2022-09-20T14:17:04;102020.75;;;19.47;56.72
16580;BME280;8402;51.466;6.806;2022-09-20T14:19:40;102023.16;;;19.37;56.33
16580;BME280;8402;51.466;6.806;2022-09-20T14:22:16;102031.03;;;19.26;56.51
16580;BME280;8402;51.466;6.806;2022-09-20T14:24:56;102026.41;;;19.06;56.41
16580;BME280;8402;51.466;6.806;2022-09-20T14:27:25;102025.50;;;19.02;57.55
16580;BME280;8402;51.466;6.806;2022-09-20T14:29:56;102019.75;;;18.94;57.08
16580;BME280;8402;51.466;6.806;2022-09-20T14:32:38;102028.91;;;18.86;57.47